sensor_id;sensor_type;location;lat;lon;timestamp;pressure;altitude;pressure_sealevel;temperature;humidity
46682;BME280;34101;53.430;-2.224;2023-03-24T00:01:00;98546.79;;;9.54;68.86
46682;BME280;34101;53.430;-2.224;2023-03-24T00:03:27;98559.84;;;9.63;67.80
46682;BME280;34101;53.430;-2.224;2023-03-24T00:08:54;98560.74;;;9.56;68.16
46682;BME280;34101;53.430;-2.224;2023-03-24T00:11:22;98563.12;;;9.34;68.13
46682;BME280;34101;53.430;-2.224;2023-03-24T00:13:49;98562.07;;;9.35;67.40
46682;BME280;34101;53.430;-2.224;2023-03-24T00:16:17;98565.90;;;9.24;67.74
46682;BME280;34101;53.430;-2.224;2023-03-24T00:18:45;98567.67;;;9.40;66.78
46682;BME280;34101;53.430;-2.224;2023-03-24T00:21:12;98567.69;;;9.36;65.82
46682;BME280;34101;53.430;-2.224;2023-03-24T00:23:40;98566.65;;;9.37;66.05
46682;BME280;34101;53.430;-2.224;2023-03-24T00:26:10;98576.84;;;9.31;65.74
46682;BME280;34101;53.430;-2.224;2023-03-24T00:28:38;98580.36;;;9.19;65.30
46682;BME280;34101;53.430;-2.224;2023-03-24T00:31:06;98583.54;;;9.33;64.61
46682;BME280;34101;53.430;-2.224;2023-03-24T00:33:35;98583.05;;;9.39;63.99
46682;BME280;34101;53.430;-2.224;2023-03-24T00:36:04;98574.25;;;9.31;63.62
46682;BME280;34101;53.430;-2.224;2023-03-24T00:38:33;98586.09;;;9.01;63.94
46682;BME280;34101;53.430;-2.224;2023-03-24T00:41:01;98580.21;;;9.02;63.71
46682;BME280;34101;53.430;-2.224;2023-03-24T00:43:29;98580.96;;;9.04;63.63
46682;BME280;34101;53.430;-2.224;2023-03-24T00:45:57;98585.02;;;9.10;63.57
46682;BME280;34101;53.430;-2.224;2023-03-24T00:48:26;98579.01;;;9.15;63.13
46682;BME280;34101;53.430;-2.224;2023-03-24T00:50:55;98580.73;;;9.07;62.78
46682;BME280;34101;53.430;-2.224;2023-03-24T00:53:23;98585.67;;;9.00;63.24
46682;BME280;34101;53.430;-2.224;2023-03-24T00:55:51;98580.32;;;8.99;63.21
46682;BME280;34101;53.430;-2.224;2023-03-24T00:58:18;98587.59;;;8.99;63.02
46682;BME280;34101;53.430;-2.224;2023-03-24T01:00:50;98592.28;;;8.84;63.80
46682;BME280;34101;53.430;-2.224;2023-03-24T01:03:19;98598.57;;;8.70;64.18
46682;BME280;34101;53.430;-2.224;2023-03-24T01:05:48;98603.67;;;8.77;64.32
46682;BME280;34101;53.430;-2.224;2023-03-24T01:08:17;98603.46;;;8.78;64.32
46682;BME280;34101;53.430;-2.224;2023-03-24T01:10:46;98610.76;;;8.82;64.10
46682;BME280;34101;53.430;-2.224;2023-03-24T01:13:15;98613.88;;;8.65;64.83
46682;BME280;34101;53.430;-2.224;2023-03-24T01:15:44;98618.32;;;8.44;65.81
46682;BME280;34101;53.430;-2.224;2023-03-24T01:18:12;98617.60;;;8.65;65.39
46682;BME280;34101;53.430;-2.224;2023-03-24T01:20:42;98623.62;;;8.36;66.94
46682;BME280;34101;53.430;-2.224;2023-03-24T01:23:11;98623.93;;;8.56;66.61
46682;BME280;34101;53.430;-2.224;2023-03-24T01:25:39;98627.07;;;8.84;65.68
46682;BME280;34101;53.430;-2.224;2023-03-24T01:28:07;98630.31;;;9.05;64.94
46682;BME280;34101;53.430;-2.224;2023-03-24T01:30:35;98628.64;;;8.78;66.56
46682;BME280;34101;53.430;-2.224;2023-03-24T01:33:02;98624.62;;;8.96;65.80
46682;BME280;34101;53.430;-2.224;2023-03-24T01:35:30;98630.13;;;9.09;65.81
46682;BME280;34101;53.430;-2.224;2023-03-24T01:37:58;98638.60;;;8.76;67.03
46682;BME280;34101;53.430;-2.224;2023-03-24T01:40:29;98638.82;;;8.70;67.53
46682;BME280;34101;53.430;-2.224;2023-03-24T01:42:58;98633.26;;;8.85;67.02
46682;BME280;34101;53.430;-2.224;2023-03-24T01:46:04;98633.43;;;8.92;66.75
46682;BME280;34101;53.430;-2.224;2023-03-24T01:48:37;98638.33;;;8.66;67.84
46682;BME280;34101;53.430;-2.224;2023-03-24T01:51:09;98642.61;;;8.77;67.26
46682;BME280;34101;53.430;-2.224;2023-03-24T01:53:55;98635.32;;;8.85;66.88
46682;BME280;34101;53.430;-2.224;2023-03-24T01:56:24;98644.35;;;8.82;66.97
46682;BME280;34101;53.430;-2.224;2023-03-24T01:58:55;98651.59;;;8.64;67.91
46682;BME280;34101;53.430;-2.224;2023-03-24T02:01:25;98657.74;;;8.76;67.30
46682;BME280;34101;53.430;-2.224;2023-03-24T02:03:53;98654.33;;;8.92;66.67
46682;BME280;34101;53.430;-2.224;2023-03-24T02:06:22;98652.66;;;8.98;66.43
46682;BME280;34101;53.430;-2.224;2023-03-24T02:08:52;98653.37;;;9.28;65.60
46682;BME280;34101;53.430;-2.224;2023-03-24T02:11:22;98652.08;;;9.21;65.39
46682;BME280;34101;53.430;-2.224;2023-03-24T02:13:50;98656.28;;;9.12;66.36
46682;BME280;34101;53.430;-2.224;2023-03-24T02:16:26;98654.77;;;9.27;65.92
46682;BME280;34101;53.430;-2.224;2023-03-24T02:19:15;98655.23;;;9.18;66.10
46682;BME280;34101;53.430;-2.224;2023-03-24T02:22:07;98657.37;;;9.01;67.17
46682;BME280;34101;53.430;-2.224;2023-03-24T02:28:00;98657.22;;;9.15;65.88
46682;BME280;34101;53.430;-2.224;2023-03-24T02:30:45;98658.43;;;8.98;66.98
46682;BME280;34101;53.430;-2.224;2023-03-24T02:33:36;98664.04;;;8.84;66.36
46682;BME280;34101;53.430;-2.224;2023-03-24T02:37:28;98668.54;;;8.84;67.05
46682;BME280;34101;53.430;-2.224;2023-03-24T02:40:16;98667.10;;;9.00;66.56
46682;BME280;34101;53.430;-2.224;2023-03-24T02:42:56;98666.99;;;9.04;66.02
46682;BME280;34101;53.430;-2.224;2023-03-24T02:45:34;98672.19;;;9.18;65.45
46682;BME280;34101;53.430;-2.224;2023-03-24T02:48:13;98668.10;;;9.10;65.41
46682;BME280;34101;53.430;-2.224;2023-03-24T02:50:50;98667.58;;;9.14;65.38
46682;BME280;34101;53.430;-2.224;2023-03-24T02:53:27;98667.09;;;9.21;65.16
46682;BME280;34101;53.430;-2.224;2023-03-24T02:56:01;98670.84;;;8.67;66.73
46682;BME280;34101;53.430;-2.224;2023-03-24T02:58:35;98674.07;;;8.99;66.16
46682;BME280;34101;53.430;-2.224;2023-03-24T03:01:09;98675.17;;;8.75;66.63
46682;BME280;34101;53.430;-2.224;2023-03-24T03:03:42;98679.99;;;9.11;65.98
46682;BME280;34101;53.430;-2.224;2023-03-24T03:06:15;98680.88;;;9.25;65.44
46682;BME280;34101;53.430;-2.224;2023-03-24T03:08:44;98679.68;;;9.44;64.71
46682;BME280;34101;53.430;-2.224;2023-03-24T03:11:15;98677.27;;;9.28;64.95
46682;BME280;34101;53.430;-2.224;2023-03-24T03:13:47;98681.42;;;9.36;64.93
46682;BME280;34101;53.430;-2.224;2023-03-24T03:16:21;98683.02;;;9.26;65.61
46682;BME280;34101;53.430;-2.224;2023-03-24T03:18:54;98685.54;;;9.37;65.12
46682;BME280;34101;53.430;-2.224;2023-03-24T03:21:25;98681.99;;;9.41;65.07
46682;BME280;34101;53.430;-2.224;2023-03-24T03:23:58;98684.56;;;9.47;64.91
46682;BME280;34101;53.430;-2.224;2023-03-24T03:26:29;98688.20;;;8.84;67.06
46682;BME280;34101;53.430;-2.224;2023-03-24T03:28:59;98690.25;;;9.23;65.95
46682;BME280;34101;53.430;-2.224;2023-03-24T03:31:33;98683.93;;;9.18;65.74
46682;BME280;34101;53.430;-2.224;2023-03-24T03:34:09;98687.43;;;9.41;65.14
46682;BME280;34101;53.430;-2.224;2023-03-24T03:36:43;98680.59;;;9.34;65.07
46682;BME280;34101;53.430;-2.224;2023-03-24T03:39:15;98679.33;;;9.40;64.85
46682;BME280;34101;53.430;-2.224;2023-03-24T03:41:44;98681.02;;;9.38;65.28
46682;BME280;34101;53.430;-2.224;2023-03-24T03:44:12;98683.12;;;9.27;65.63
46682;BME280;34101;53.430;-2.224;2023-03-24T03:46:39;98686.99;;;9.07;66.48
46682;BME280;34101;53.430;-2.224;2023-03-24T03:49:07;98692.18;;;8.94;67.33
46682;BME280;34101;53.430;-2.224;2023-03-24T03:51:34;98695.37;;;8.92;67.56
46682;BME280;34101;53.430;-2.224;2023-03-24T03:54:04;98695.55;;;9.22;67.05
46682;BME280;34101;53.430;-2.224;2023-03-24T03:56:35;98689.45;;;9.11;67.46
46682;BME280;34101;53.430;-2.224;2023-03-24T03:59:04;98687.52;;;8.79;69.00
46682;BME280;34101;53.430;-2.224;2023-03-24T04:01:33;98684.59;;;8.88;68.72
46682;BME280;34101;53.430;-2.224;2023-03-24T04:04:18;98692.11;;;8.92;68.62
46682;BME280;34101;53.430;-2.224;2023-03-24T04:06:55;98698.89;;;8.83;68.94
46682;BME280;34101;53.430;-2.224;2023-03-24T04:09:36;98692.27;;;8.91;68.29
46682;BME280;34101;53.430;-2.224;2023-03-24T04:12:21;98700.18;;;8.87;69.00
46682;BME280;34101;53.430;-2.224;2023-03-24T04:15:18;98701.14;;;8.96;68.48
46682;BME280;34101;53.430;-2.224;2023-03-24T04:18:01;98698.44;;;9.14;67.95
46682;BME280;34101;53.430;-2.224;2023-03-24T04:20:35;98701.09;;;9.20;67.57
46682;BME280;34101;53.430;-2.224;2023-03-24T04:23:10;98699.84;;;9.07;68.34
46682;BME280;34101;53.430;-2.224;2023-03-24T04:25:45;98703.46;;;9.14;67.99
46682;BME280;34101;53.430;-2.224;2023-03-24T04:28:20;98704.27;;;9.21;67.92
46682;BME280;34101;53.430;-2.224;2023-03-24T04:30:51;98702.56;;;9.07;68.21
46682;BME280;34101;53.430;-2.224;2023-03-24T04:33:23;98701.64;;;9.25;67.73
46682;BME280;34101;53.430;-2.224;2023-03-24T04:35:55;98704.22;;;8.86;68.70
46682;BME280;34101;53.430;-2.224;2023-03-24T04:38:27;98706.13;;;8.77;69.30
46682;BME280;34101;53.430;-2.224;2023-03-24T04:40:55;98704.08;;;9.00;68.49
46682;BME280;34101;53.430;-2.224;2023-03-24T04:43:27;98711.15;;;8.89;68.73
46682;BME280;34101;53.430;-2.224;2023-03-24T04:45:55;98708.34;;;8.86;68.70
46682;BME280;34101;53.430;-2.224;2023-03-24T04:48:23;98708.79;;;8.91;68.46
46682;BME280;34101;53.430;-2.224;2023-03-24T04:50:54;98712.37;;;8.87;68.44
46682;BME280;34101;53.430;-2.224;2023-03-24T04:53:22;98711.63;;;8.64;69.61
46682;BME280;34101;53.430;-2.224;2023-03-24T04:55:57;98712.83;;;8.80;68.94
46682;BME280;34101;53.430;-2.224;2023-03-24T04:58:27;98714.79;;;8.98;68.13
46682;BME280;34101;53.430;-2.224;2023-03-24T05:00:55;98719.32;;;8.75;69.01
46682;BME280;34101;53.430;-2.224;2023-03-24T05:03:23;98717.80;;;8.56;69.61
46682;BME280;34101;53.430;-2.224;2023-03-24T05:05:51;98725.55;;;8.55;69.49
46682;BME280;34101;53.430;-2.224;2023-03-24T05:08:20;98731.87;;;8.65;69.08
46682;BME280;34101;53.430;-2.224;2023-03-24T05:10:47;98730.34;;;8.52;69.68
46682;BME280;34101;53.430;-2.224;2023-03-24T05:13:15;98733.82;;;8.64;69.54
46682;BME280;34101;53.430;-2.224;2023-03-24T05:15:42;98738.39;;;8.70;69.13
46682;BME280;34101;53.430;-2.224;2023-03-24T05:18:10;98725.40;;;8.94;68.02
46682;BME280;34101;53.430;-2.224;2023-03-24T05:20:38;98731.53;;;8.73;68.64
46682;BME280;34101;53.430;-2.224;2023-03-24T05:23:05;98731.16;;;8.77;68.52
46682;BME280;34101;53.430;-2.224;2023-03-24T05:25:32;98737.43;;;8.84;67.87
46682;BME280;34101;53.430;-2.224;2023-03-24T05:28:00;98743.85;;;8.97;67.40
46682;BME280;34101;53.430;-2.224;2023-03-24T05:30:27;98742.42;;;8.89;67.49
46682;BME280;34101;53.430;-2.224;2023-03-24T05:32:55;98742.99;;;8.91;67.39
46682;BME280;34101;53.430;-2.224;2023-03-24T05:35:22;98740.19;;;8.74;67.55
46682;BME280;34101;53.430;-2.224;2023-03-24T05:37:50;98741.21;;;8.75;67.44
46682;BME280;34101;53.430;-2.224;2023-03-24T05:40:17;98748.33;;;8.55;67.74
46682;BME280;34101;53.430;-2.224;2023-03-24T05:42:46;98752.24;;;8.85;67.09
46682;BME280;34101;53.430;-2.224;2023-03-24T05:45:14;98750.20;;;8.82;67.11
46682;BME280;34101;53.430;-2.224;2023-03-24T05:47:41;98744.93;;;8.61;67.53
46682;BME280;34101;53.430;-2.224;2023-03-24T05:50:09;98751.64;;;8.67;67.58
46682;BME280;34101;53.430;-2.224;2023-03-24T05:52:37;98760.27;;;8.68;67.51
46682;BME280;34101;53.430;-2.224;2023-03-24T05:55:05;98754.39;;;8.71;67.32
46682;BME280;34101;53.430;-2.224;2023-03-24T05:57:33;98745.23;;;8.81;67.04
46682;BME280;34101;53.430;-2.224;2023-03-24T06:00:01;98749.15;;;9.01;66.32
46682;BME280;34101;53.430;-2.224;2023-03-24T06:02:29;98751.82;;;8.97;66.10
46682;BME280;34101;53.430;-2.224;2023-03-24T06:04:56;98746.94;;;8.64;67.53
46682;BME280;34101;53.430;-2.224;2023-03-24T06:07:23;98751.85;;;8.89;67.54
46682;BME280;34101;53.430;-2.224;2023-03-24T06:09:51;98756.29;;;8.86;67.81
46682;BME280;34101;53.430;-2.224;2023-03-24T06:12:18;98754.86;;;8.38;69.62
46682;BME280;34101;53.430;-2.224;2023-03-24T06:14:45;98760.16;;;8.57;68.83
46682;BME280;34101;53.430;-2.224;2023-03-24T06:17:13;98750.02;;;8.76;67.76
46682;BME280;34101;53.430;-2.224;2023-03-24T06:19:41;98754.81;;;8.84;67.90
46682;BME280;34101;53.430;-2.224;2023-03-24T06:22:08;98751.83;;;8.75;67.24
46682;BME280;34101;53.430;-2.224;2023-03-24T06:24:35;98770.28;;;8.67;68.24
46682;BME280;34101;53.430;-2.224;2023-03-24T06:27:03;98770.12;;;8.76;67.76
46682;BME280;34101;53.430;-2.224;2023-03-24T06:29:31;98759.19;;;8.79;67.46
46682;BME280;34101;53.430;-2.224;2023-03-24T06:31:59;98757.10;;;8.81;67.34
46682;BME280;34101;53.430;-2.224;2023-03-24T06:34:26;98759.79;;;9.03;66.37
46682;BME280;34101;53.430;-2.224;2023-03-24T06:36:53;98756.95;;;8.96;66.70
46682;BME280;34101;53.430;-2.224;2023-03-24T06:39:21;98763.13;;;9.05;66.61
46682;BME280;34101;53.430;-2.224;2023-03-24T06:41:48;98761.96;;;9.22;65.95
46682;BME280;34101;53.430;-2.224;2023-03-24T06:44:16;98767.50;;;8.71;67.73
46682;BME280;34101;53.430;-2.224;2023-03-24T06:46:43;98759.48;;;8.71;68.33
46682;BME280;34101;53.430;-2.224;2023-03-24T06:49:10;98761.75;;;8.70;68.53
46682;BME280;34101;53.430;-2.224;2023-03-24T06:51:38;98767.87;;;8.81;67.92
46682;BME280;34101;53.430;-2.224;2023-03-24T06:54:05;98763.53;;;8.81;67.78
46682;BME280;34101;53.430;-2.224;2023-03-24T06:56:33;98773.59;;;8.91;68.04
46682;BME280;34101;53.430;-2.224;2023-03-24T06:59:00;98773.26;;;8.79;67.77
46682;BME280;34101;53.430;-2.224;2023-03-24T07:01:27;98779.81;;;8.63;69.10
46682;BME280;34101;53.430;-2.224;2023-03-24T07:03:55;98775.36;;;9.01;68.01
46682;BME280;34101;53.430;-2.224;2023-03-24T07:06:22;98778.69;;;8.92;68.07
46682;BME280;34101;53.430;-2.224;2023-03-24T07:08:50;98783.39;;;9.22;67.07
46682;BME280;34101;53.430;-2.224;2023-03-24T07:11:17;98783.74;;;9.29;67.23
46682;BME280;34101;53.430;-2.224;2023-03-24T07:13:45;98786.68;;;9.19;67.58
46682;BME280;34101;53.430;-2.224;2023-03-24T07:16:12;98785.00;;;9.28;66.98
46682;BME280;34101;53.430;-2.224;2023-03-24T07:18:40;98789.15;;;9.17;67.08
46682;BME280;34101;53.430;-2.224;2023-03-24T07:21:07;98782.08;;;9.32;66.74
46682;BME280;34101;53.430;-2.224;2023-03-24T07:23:35;98791.09;;;9.25;66.94
46682;BME280;34101;53.430;-2.224;2023-03-24T07:26:02;98783.16;;;9.01;67.40
46682;BME280;34101;53.430;-2.224;2023-03-24T07:28:29;98785.36;;;8.96;67.53
46682;BME280;34101;53.430;-2.224;2023-03-24T07:31:01;98783.18;;;9.16;66.69
46682;BME280;34101;53.430;-2.224;2023-03-24T07:33:30;98780.20;;;9.58;66.18
46682;BME280;34101;53.430;-2.224;2023-03-24T07:35:57;98775.74;;;9.61;65.33
46682;BME280;34101;53.430;-2.224;2023-03-24T07:38:25;98774.44;;;9.71;65.33
46682;BME280;34101;53.430;-2.224;2023-03-24T07:40:52;98772.84;;;9.56;65.80
46682;BME280;34101;53.430;-2.224;2023-03-24T07:43:19;98782.94;;;9.64;65.73
46682;BME280;34101;53.430;-2.224;2023-03-24T07:45:47;98785.45;;;9.75;65.57
46682;BME280;34101;53.430;-2.224;2023-03-24T07:48:14;98780.91;;;9.97;64.11
46682;BME280;34101;53.430;-2.224;2023-03-24T07:50:42;98786.53;;;10.33;63.80
46682;BME280;34101;53.430;-2.224;2023-03-24T07:53:09;98784.45;;;10.41;63.23
46682;BME280;34101;53.430;-2.224;2023-03-24T07:55:37;98781.93;;;10.64;62.45
46682;BME280;34101;53.430;-2.224;2023-03-24T07:58:05;98787.83;;;10.60;63.13
46682;BME280;34101;53.430;-2.224;2023-03-24T08:00:33;98784.17;;;10.50;63.02
46682;BME280;34101;53.430;-2.224;2023-03-24T08:03:01;98779.12;;;10.36;63.85
46682;BME280;34101;53.430;-2.224;2023-03-24T08:05:29;98781.47;;;10.91;62.36
46682;BME280;34101;53.430;-2.224;2023-03-24T08:07:56;98787.26;;;10.83;62.44
46682;BME280;34101;53.430;-2.224;2023-03-24T08:10:26;98783.39;;;10.86;62.57
46682;BME280;34101;53.430;-2.224;2023-03-24T08:12:55;98782.06;;;11.01;62.15
46682;BME280;34101;53.430;-2.224;2023-03-24T08:15:23;98792.98;;;11.03;61.89
46682;BME280;34101;53.430;-2.224;2023-03-24T08:17:51;98784.18;;;11.14;61.53
46682;BME280;34101;53.430;-2.224;2023-03-24T08:20:19;98783.36;;;10.84;62.68
46682;BME280;34101;53.430;-2.224;2023-03-24T08:22:48;98780.21;;;11.26;61.70
46682;BME280;34101;53.430;-2.224;2023-03-24T08:25:17;98777.03;;;11.73;60.53
46682;BME280;34101;53.430;-2.224;2023-03-24T08:27:45;98786.75;;;12.65;57.54
46682;BME280;34101;53.430;-2.224;2023-03-24T08:30:15;98784.53;;;12.99;56.14
46682;BME280;34101;53.430;-2.224;2023-03-24T08:32:44;98779.19;;;12.74;56.38
46682;BME280;34101;53.430;-2.224;2023-03-24T08:35:14;98786.73;;;13.11;55.05
46682;BME280;34101;53.430;-2.224;2023-03-24T08:37:42;98785.62;;;13.35;54.49
46682;BME280;34101;53.430;-2.224;2023-03-24T08:40:11;98787.95;;;13.79;53.13
46682;BME280;34101;53.430;-2.224;2023-03-24T08:42:40;98768.80;;;13.99;52.32
46682;BME280;34101;53.430;-2.224;2023-03-24T08:45:09;98774.72;;;13.52;53.46
46682;BME280;34101;53.430;-2.224;2023-03-24T08:47:37;98774.43;;;13.89;52.48
46682;BME280;34101;53.430;-2.224;2023-03-24T08:50:06;98781.95;;;13.46;53.28
46682;BME280;34101;53.430;-2.224;2023-03-24T08:52:34;98786.89;;;13.21;53.58
46682;BME280;34101;53.430;-2.224;2023-03-24T08:55:02;98789.73;;;13.87;52.42
46682;BME280;34101;53.430;-2.224;2023-03-24T08:57:29;98783.70;;;14.03;51.86
46682;BME280;34101;53.430;-2.224;2023-03-24T08:59:58;98789.64;;;14.37;50.96
46682;BME280;34101;53.430;-2.224;2023-03-24T09:02:25;98792.05;;;14.42;50.24
46682;BME280;34101;53.430;-2.224;2023-03-24T09:04:53;98794.60;;;13.45;53.22
46682;BME280;34101;53.430;-2.224;2023-03-24T09:07:21;98786.43;;;13.43;52.81
46682;BME280;34101;53.430;-2.224;2023-03-24T09:09:49;98802.92;;;14.08;51.06
46682;BME280;34101;53.430;-2.224;2023-03-24T09:12:16;98796.72;;;13.88;51.64
46682;BME280;34101;53.430;-2.224;2023-03-24T09:14:47;98802.62;;;13.93;51.26
46682;BME280;34101;53.430;-2.224;2023-03-24T09:17:14;98795.28;;;13.84;51.47
46682;BME280;34101;53.430;-2.224;2023-03-24T09:19:42;98800.03;;;12.89;54.23
46682;BME280;34101;53.430;-2.224;2023-03-24T09:22:10;98804.49;;;12.20;57.78
46682;BME280;34101;53.430;-2.224;2023-03-24T09:24:37;98794.55;;;12.47;59.64
46682;BME280;34101;53.430;-2.224;2023-03-24T09:27:05;98798.24;;;12.70;58.23
46682;BME280;34101;53.430;-2.224;2023-03-24T09:29:32;98794.57;;;12.85;57.06
46682;BME280;34101;53.430;-2.224;2023-03-24T09:32:00;98800.50;;;12.78;56.92
46682;BME280;34101;53.430;-2.224;2023-03-24T09:34:27;98797.02;;;13.18;55.58
46682;BME280;34101;53.430;-2.224;2023-03-24T09:36:55;98804.27;;;12.54;56.73
46682;BME280;34101;53.430;-2.224;2023-03-24T09:39:22;98799.58;;;12.47;57.53
46682;BME280;34101;53.430;-2.224;2023-03-24T09:41:50;98797.16;;;12.65;56.66
46682;BME280;34101;53.430;-2.224;2023-03-24T09:44:23;98802.44;;;12.93;56.14
46682;BME280;34101;53.430;-2.224;2023-03-24T09:46:57;98798.66;;;13.05;55.95
46682;BME280;34101;53.430;-2.224;2023-03-24T09:49:29;98785.50;;;14.18;52.18
46682;BME280;34101;53.430;-2.224;2023-03-24T09:52:03;98792.19;;;13.57;53.69
46682;BME280;34101;53.430;-2.224;2023-03-24T09:54:37;98779.76;;;14.56;51.06
46682;BME280;34101;53.430;-2.224;2023-03-24T09:57:13;98779.68;;;14.81;50.15
46682;BME280;34101;53.430;-2.224;2023-03-24T09:59:43;98780.20;;;14.63;50.05
46682;BME280;34101;53.430;-2.224;2023-03-24T10:02:13;98773.84;;;14.69;49.98
46682;BME280;34101;53.430;-2.224;2023-03-24T10:04:41;98774.52;;;14.05;51.84
46682;BME280;34101;53.430;-2.224;2023-03-24T10:07:15;98783.33;;;13.73;52.80
46682;BME280;34101;53.430;-2.224;2023-03-24T10:09:47;98785.47;;;13.63;53.42
46682;BME280;34101;53.430;-2.224;2023-03-24T10:12:24;98789.11;;;13.05;54.82
46682;BME280;34101;53.430;-2.224;2023-03-24T10:15:04;98793.19;;;13.12;54.21
46682;BME280;34101;53.430;-2.224;2023-03-24T10:17:41;98785.57;;;13.31;54.17
46682;BME280;34101;53.430;-2.224;2023-03-24T10:20:19;98786.50;;;14.04;53.75
46682;BME280;34101;53.430;-2.224;2023-03-24T10:22:58;98782.70;;;14.02;52.93
46682;BME280;34101;53.430;-2.224;2023-03-24T10:25:37;98792.33;;;14.17;52.34
46682;BME280;34101;53.430;-2.224;2023-03-24T10:28:17;98791.91;;;13.41;53.73
46682;BME280;34101;53.430;-2.224;2023-03-24T10:30:48;98788.17;;;13.35;53.76
46682;BME280;34101;53.430;-2.224;2023-03-24T10:33:17;98788.96;;;13.36;55.11
46682;BME280;34101;53.430;-2.224;2023-03-24T10:35:52;98790.63;;;13.42;56.28
46682;BME280;34101;53.430;-2.224;2023-03-24T10:38:22;98787.30;;;13.03;56.23
46682;BME280;34101;53.430;-2.224;2023-03-24T10:40:51;98778.64;;;13.27;54.63
46682;BME280;34101;53.430;-2.224;2023-03-24T10:43:22;98777.17;;;14.01;51.92
46682;BME280;34101;53.430;-2.224;2023-03-24T10:45:51;98770.50;;;14.15;51.01
46682;BME280;34101;53.430;-2.224;2023-03-24T10:48:34;98773.23;;;13.87;51.50
46682;BME280;34101;53.430;-2.224;2023-03-24T10:51:10;98762.79;;;14.47;49.86
46682;BME280;34101;53.430;-2.224;2023-03-24T10:53:39;98775.56;;;15.01;48.21
46682;BME280;34101;53.430;-2.224;2023-03-24T10:56:07;98765.80;;;14.59;47.67
46682;BME280;34101;53.430;-2.224;2023-03-24T10:58:37;98773.47;;;14.57;48.28
46682;BME280;34101;53.430;-2.224;2023-03-24T11:01:18;98786.67;;;15.88;45.23
46682;BME280;34101;53.430;-2.224;2023-03-24T11:03:48;98777.33;;;15.58;46.47
46682;BME280;34101;53.430;-2.224;2023-03-24T11:06:21;98772.53;;;15.37;46.83
46682;BME280;34101;53.430;-2.224;2023-03-24T11:09:07;98763.99;;;15.90;45.16
46682;BME280;34101;53.430;-2.224;2023-03-24T11:11:35;98771.08;;;15.68;45.64
46682;BME280;34101;53.430;-2.224;2023-03-24T11:14:02;98766.85;;;16.21;44.18
46682;BME280;34101;53.430;-2.224;2023-03-24T11:16:31;98761.04;;;15.93;44.70
46682;BME280;34101;53.430;-2.224;2023-03-24T11:19:04;98761.72;;;16.38;44.70
46682;BME280;34101;53.430;-2.224;2023-03-24T11:21:34;98760.15;;;15.74;44.60
46682;BME280;34101;53.430;-2.224;2023-03-24T11:24:09;98763.64;;;15.48;46.06
46682;BME280;34101;53.430;-2.224;2023-03-24T11:26:38;98759.29;;;15.75;45.58
46682;BME280;34101;53.430;-2.224;2023-03-24T11:29:11;98754.83;;;16.04;44.76
46682;BME280;34101;53.430;-2.224;2023-03-24T11:31:40;98756.16;;;15.88;44.83
46682;BME280;34101;53.430;-2.224;2023-03-24T11:34:12;98755.36;;;15.28;45.59
46682;BME280;34101;53.430;-2.224;2023-03-24T11:36:45;98759.57;;;15.71;45.35
46682;BME280;34101;53.430;-2.224;2023-03-24T11:39:16;98757.83;;;15.92;44.63
46682;BME280;34101;53.430;-2.224;2023-03-24T11:41:51;98762.00;;;16.00;44.08
46682;BME280;34101;53.430;-2.224;2023-03-24T11:44:22;98773.90;;;15.97;47.96
46682;BME280;34101;53.430;-2.224;2023-03-24T11:46:53;98768.02;;;15.81;47.03
46682;BME280;34101;53.430;-2.224;2023-03-24T11:49:26;98762.62;;;15.66;45.13
46682;BME280;34101;53.430;-2.224;2023-03-24T11:51:56;98767.24;;;16.47;44.09
46682;BME280;34101;53.430;-2.224;2023-03-24T11:54:28;98761.43;;;16.18;43.06
46682;BME280;34101;53.430;-2.224;2023-03-24T11:57:00;98764.59;;;15.33;43.69
46682;BME280;34101;53.430;-2.224;2023-03-24T11:59:35;98770.97;;;15.24;42.97
46682;BME280;34101;53.430;-2.224;2023-03-24T12:02:12;98778.73;;;14.27;44.46
46682;BME280;34101;53.430;-2.224;2023-03-24T12:04:56;98765.29;;;14.46;44.00
46682;BME280;34101;53.430;-2.224;2023-03-24T12:07:43;98767.91;;;14.42;43.85
46682;BME280;34101;53.430;-2.224;2023-03-24T12:10:23;98758.15;;;14.15;44.29
46682;BME280;34101;53.430;-2.224;2023-03-24T12:13:00;98757.29;;;14.28;43.80
46682;BME280;34101;53.430;-2.224;2023-03-24T12:15:37;98759.62;;;14.21;44.61
46682;BME280;34101;53.430;-2.224;2023-03-24T12:18:18;98778.51;;;13.55;47.28
46682;BME280;34101;53.430;-2.224;2023-03-24T12:20:55;98767.41;;;13.69;48.37
46682;BME280;34101;53.430;-2.224;2023-03-24T12:23:36;98757.71;;;13.63;47.21
46682;BME280;34101;53.430;-2.224;2023-03-24T12:26:14;98764.10;;;13.46;48.14
46682;BME280;34101;53.430;-2.224;2023-03-24T12:28:52;98761.60;;;13.75;47.35
46682;BME280;34101;53.430;-2.224;2023-03-24T12:33:50;98750.93;;;14.07;52.97
46682;BME280;34101;53.430;-2.224;2023-03-24T12:36:30;98744.83;;;13.91;51.07
46682;BME280;34101;53.430;-2.224;2023-03-24T12:39:08;98741.89;;;13.91;50.36
46682;BME280;34101;53.430;-2.224;2023-03-24T12:41:46;98740.50;;;14.61;50.63
46682;BME280;34101;53.430;-2.224;2023-03-24T12:45:01;98738.77;;;14.83;47.92
46682;BME280;34101;53.430;-2.224;2023-03-24T12:47:44;98739.73;;;14.92;47.92
46682;BME280;34101;53.430;-2.224;2023-03-24T12:50:27;98737.89;;;15.15;45.85
46682;BME280;34101;53.430;-2.224;2023-03-24T12:53:10;98731.67;;;14.86;45.48
46682;BME280;34101;53.430;-2.224;2023-03-24T12:55:43;98731.13;;;15.16;44.70
46682;BME280;34101;53.430;-2.224;2023-03-24T12:58:18;98730.08;;;15.17;44.57
46682;BME280;34101;53.430;-2.224;2023-03-24T13:00:56;98734.81;;;15.50;44.17
46682;BME280;34101;53.430;-2.224;2023-03-24T13:03:29;98724.06;;;15.29;43.61
46682;BME280;34101;53.430;-2.224;2023-03-24T13:06:11;98729.05;;;15.31;42.64
46682;BME280;34101;53.430;-2.224;2023-03-24T13:08:41;98723.44;;;15.20;42.01
46682;BME280;34101;53.430;-2.224;2023-03-24T13:11:12;98726.34;;;14.94;42.75
46682;BME280;34101;53.430;-2.224;2023-03-24T13:13:43;98716.43;;;15.22;43.08
46682;BME280;34101;53.430;-2.224;2023-03-24T13:16:14;98716.19;;;15.64;41.45
46682;BME280;34101;53.430;-2.224;2023-03-24T13:18:44;98709.37;;;15.36;42.64
46682;BME280;34101;53.430;-2.224;2023-03-24T13:21:15;98705.60;;;15.70;41.51
46682;BME280;34101;53.430;-2.224;2023-03-24T13:23:48;98703.75;;;15.65;40.45
46682;BME280;34101;53.430;-2.224;2023-03-24T13:26:25;98700.25;;;15.34;41.22